sensor_id;sensor_type;location;lat;lon;timestamp;temperature;humidity
1468;DHT22;727;48.892;9.544;2022-12-29T00:01:57;4.40;99.90
1468;DHT22;727;48.892;9.544;2022-12-29T00:04:25;4.40;99.90
1468;DHT22;727;48.892;9.544;2022-12-29T00:06:52;4.40;99.90
1468;DHT22;727;48.892;9.544;2022-12-29T00:09:19;4.50;99.90
1468;DHT22;727;48.892;9.544;2022-12-29T00:11:45;4.40;99.90
1468;DHT22;727;48.892;9.544;2022-12-29T00:14:12;4.50;99.90
1468;DHT22;727;48.892;9.544;2022-12-29T00:16:57;4.50;99.90
1468;DHT22;727;48.892;9.544;2022-12-29T00:19:25;4.50;99.90
1468;DHT22;727;48.892;9.544;2022-12-29T00:22:11;4.60;99.90
1468;DHT22;727;48.892;9.544;2022-12-29T00:24:55;4.60;99.90
1468;DHT22;727;48.892;9.544;2022-12-29T00:27:39;4.70;99.90
1468;DHT22;727;48.892;9.544;2022-12-29T00:30:23;4.70;99.90
1468;DHT22;727;48.892;9.544;2022-12-29T00:33:11;4.80;99.90
1468;DHT22;727;48.892;9.544;2022-12-29T00:36:02;4.80;99.90
1468;DHT22;727;48.892;9.544;2022-12-29T00:38:31;4.90;99.90
1468;DHT22;727;48.892;9.544;2022-12-29T00:41:17;4.90;99.90
1468;DHT22;727;48.892;9.544;2022-12-29T00:44:01;5.00;99.90
1468;DHT22;727;48.892;9.544;2022-12-29T00:46:36;5.00;99.90
1468;DHT22;727;48.892;9.544;2022-12-29T00:49:03;5.00;99.90
1468;DHT22;727;48.892;9.544;2022-12-29T00:51:49;5.00;99.90
1468;DHT22;727;48.892;9.544;2022-12-29T00:54:16;4.90;99.90
1468;DHT22;727;48.892;9.544;2022-12-29T00:56:43;4.90;99.90
1468;DHT22;727;48.892;9.544;2022-12-29T00:59:11;4.80;99.90
1468;DHT22;727;48.892;9.544;2022-12-29T01:01:38;4.80;99.90
1468;DHT22;727;48.892;9.544;2022-12-29T01:04:06;4.80;99.90
1468;DHT22;727;48.892;9.544;2022-12-29T01:06:34;4.80;99.90
1468;DHT22;727;48.892;9.544;2022-12-29T01:09:03;4.80;99.90
1468;DHT22;727;48.892;9.544;2022-12-29T01:11:47;4.80;99.90
1468;DHT22;727;48.892;9.544;2022-12-29T01:14:14;4.90;99.90
1468;DHT22;727;48.892;9.544;2022-12-29T01:16:41;4.80;99.90
1468;DHT22;727;48.892;9.544;2022-12-29T01:19:07;4.90;99.90
1468;DHT22;727;48.892;9.544;2022-12-29T01:21:34;4.90;99.90
1468;DHT22;727;48.892;9.544;2022-12-29T01:24:02;4.90;99.90
1468;DHT22;727;48.892;9.544;2022-12-29T01:26:29;4.90;99.90
1468;DHT22;727;48.892;9.544;2022-12-29T01:28:56;5.00;99.90
1468;DHT22;727;48.892;9.544;2022-12-29T01:31:23;5.00;99.90
1468;DHT22;727;48.892;9.544;2022-12-29T01:33:49;5.00;99.90
1468;DHT22;727;48.892;9.544;2022-12-29T01:36:18;5.00;99.90
1468;DHT22;727;48.892;9.544;2022-12-29T01:38:45;5.00;99.90
1468;DHT22;727;48.892;9.544;2022-12-29T01:41:15;5.00;99.90
1468;DHT22;727;48.892;9.544;2022-12-29T01:43:44;5.10;99.90
1468;DHT22;727;48.892;9.544;2022-12-29T01:46:20;5.10;99.90
1468;DHT22;727;48.892;9.544;2022-12-29T01:48:51;5.10;99.90
1468;DHT22;727;48.892;9.544;2022-12-29T01:51:19;5.20;99.90
1468;DHT22;727;48.892;9.544;2022-12-29T01:53:47;5.20;99.90
1468;DHT22;727;48.892;9.544;2022-12-29T01:56:17;5.20;99.90
1468;DHT22;727;48.892;9.544;2022-12-29T01:58:47;5.20;99.90
1468;DHT22;727;48.892;9.544;2022-12-29T02:01:15;5.30;99.90
1468;DHT22;727;48.892;9.544;2022-12-29T02:03:43;5.30;99.90
1468;DHT22;727;48.892;9.544;2022-12-29T02:06:12;5.40;99.90
1468;DHT22;727;48.892;9.544;2022-12-29T02:08:41;5.40;99.90
1468;DHT22;727;48.892;9.544;2022-12-29T02:11:09;5.50;99.90
1468;DHT22;727;48.892;9.544;2022-12-29T02:13:37;5.50;99.90
1468;DHT22;727;48.892;9.544;2022-12-29T02:16:14;5.50;99.90
1468;DHT22;727;48.892;9.544;2022-12-29T02:18:50;5.60;99.90
1468;DHT22;727;48.892;9.544;2022-12-29T02:21:41;5.60;99.90
1468;DHT22;727;48.892;9.544;2022-12-29T02:24:44;5.60;99.90
1468;DHT22;727;48.892;9.544;2022-12-29T02:27:29;5.60;99.90
1468;DHT22;727;48.892;9.544;2022-12-29T02:30:07;5.60;99.90
1468;DHT22;727;48.892;9.544;2022-12-29T02:32:45;5.60;99.90
1468;DHT22;727;48.892;9.544;2022-12-29T02:35:23;5.60;99.90
1468;DHT22;727;48.892;9.544;2022-12-29T02:37:59;5.60;99.90
1468;DHT22;727;48.892;9.544;2022-12-29T02:40:35;5.70;99.90
1468;DHT22;727;48.892;9.544;2022-12-29T02:43:09;5.70;99.90
1468;DHT22;727;48.892;9.544;2022-12-29T02:45:43;5.70;99.90
1468;DHT22;727;48.892;9.544;2022-12-29T02:48:18;5.70;99.90
1468;DHT22;727;48.892;9.544;2022-12-29T02:50:50;5.70;99.90
1468;DHT22;727;48.892;9.544;2022-12-29T02:53:18;5.70;99.90
1468;DHT22;727;48.892;9.544;2022-12-29T02:56:06;5.70;99.90
1468;DHT22;727;48.892;9.544;2022-12-29T02:58:32;5.70;99.90
1468;DHT22;727;48.892;9.544;2022-12-29T03:01:10;5.70;99.90
1468;DHT22;727;48.892;9.544;2022-12-29T03:03:48;5.70;99.90
1468;DHT22;727;48.892;9.544;2022-12-29T03:06:38;5.70;99.90
1468;DHT22;727;48.892;9.544;2022-12-29T03:09:23;5.80;99.90
1468;DHT22;727;48.892;9.544;2022-12-29T03:11:59;5.80;99.90
1468;DHT22;727;48.892;9.544;2022-12-29T03:14:59;5.80;99.90
1468;DHT22;727;48.892;9.544;2022-12-29T03:17:50;5.80;99.90
1468;DHT22;727;48.892;9.544;2022-12-29T03:20:24;5.80;99.90
1468;DHT22;727;48.892;9.544;2022-12-29T03:22:55;5.90;99.90
1468;DHT22;727;48.892;9.544;2022-12-29T03:25:29;5.90;99.90
1468;DHT22;727;48.892;9.544;2022-12-29T03:28:00;6.00;99.90
1468;DHT22;727;48.892;9.544;2022-12-29T03:30:28;6.00;99.90
1468;DHT22;727;48.892;9.544;2022-12-29T03:32:58;6.00;99.90
1468;DHT22;727;48.892;9.544;2022-12-29T03:35:29;6.00;99.90
1468;DHT22;727;48.892;9.544;2022-12-29T03:38:00;6.10;99.90
1468;DHT22;727;48.892;9.544;2022-12-29T03:40:32;6.20;99.90
1468;DHT22;727;48.892;9.544;2022-12-29T03:43:01;6.30;99.90
1468;DHT22;727;48.892;9.544;2022-12-29T03:45:28;6.40;99.90
1468;DHT22;727;48.892;9.544;2022-12-29T03:47:55;6.50;99.90
1468;DHT22;727;48.892;9.544;2022-12-29T03:50:22;6.60;99.90
1468;DHT22;727;48.892;9.544;2022-12-29T03:52:49;6.70;99.90
1468;DHT22;727;48.892;9.544;2022-12-29T03:55:16;6.80;99.90
1468;DHT22;727;48.892;9.544;2022-12-29T03:57:43;6.90;99.90
1468;DHT22;727;48.892;9.544;2022-12-29T04:00:11;6.90;99.90
1468;DHT22;727;48.892;9.544;2022-12-29T04:02:38;7.00;99.90
1468;DHT22;727;48.892;9.544;2022-12-29T04:05:06;7.10;99.90
1468;DHT22;727;48.892;9.544;2022-12-29T04:07:33;7.10;99.90
1468;DHT22;727;48.892;9.544;2022-12-29T04:10:01;7.10;99.90
1468;DHT22;727;48.892;9.544;2022-12-29T04:12:27;7.10;99.90
1468;DHT22;727;48.892;9.544;2022-12-29T04:14:54;7.20;99.90
1468;DHT22;727;48.892;9.544;2022-12-29T04:17:21;7.30;99.90
1468;DHT22;727;48.892;9.544;2022-12-29T04:19:47;7.30;99.90
1468;DHT22;727;48.892;9.544;2022-12-29T04:22:14;7.30;99.90
1468;DHT22;727;48.892;9.544;2022-12-29T04:24:41;7.40;99.90
1468;DHT22;727;48.892;9.544;2022-12-29T04:27:09;7.50;99.90
1468;DHT22;727;48.892;9.544;2022-12-29T04:29:35;7.50;99.90
1468;DHT22;727;48.892;9.544;2022-12-29T04:32:02;7.50;99.90
1468;DHT22;727;48.892;9.544;2022-12-29T04:34:29;7.50;99.90
1468;DHT22;727;48.892;9.544;2022-12-29T04:36:55;7.50;99.90
1468;DHT22;727;48.892;9.544;2022-12-29T04:39:22;7.60;99.90
1468;DHT22;727;48.892;9.544;2022-12-29T04:41:49;7.70;99.90
1468;DHT22;727;48.892;9.544;2022-12-29T04:44:17;7.70;99.90
1468;DHT22;727;48.892;9.544;2022-12-29T04:46:43;7.80;99.90
1468;DHT22;727;48.892;9.544;2022-12-29T04:49:10;7.90;99.90
1468;DHT22;727;48.892;9.544;2022-12-29T04:51:36;8.20;99.90
1468;DHT22;727;48.892;9.544;2022-12-29T04:54:03;8.40;99.90
1468;DHT22;727;48.892;9.544;2022-12-29T04:56:30;8.40;99.90
1468;DHT22;727;48.892;9.544;2022-12-29T04:58:57;8.40;99.90
1468;DHT22;727;48.892;9.544;2022-12-29T05:01:25;8.50;99.90
1468;DHT22;727;48.892;9.544;2022-12-29T05:03:51;8.50;99.90
1468;DHT22;727;48.892;9.544;2022-12-29T05:06:18;8.60;99.90
1468;DHT22;727;48.892;9.544;2022-12-29T05:08:45;8.60;99.90
1468;DHT22;727;48.892;9.544;2022-12-29T05:11:11;8.70;99.90
1468;DHT22;727;48.892;9.544;2022-12-29T05:13:38;8.80;99.90
1468;DHT22;727;48.892;9.544;2022-12-29T05:16:05;9.10;99.90
1468;DHT22;727;48.892;9.544;2022-12-29T05:18:33;9.30;99.90
1468;DHT22;727;48.892;9.544;2022-12-29T05:21:00;9.60;99.90
1468;DHT22;727;48.892;9.544;2022-12-29T05:23:27;9.80;99.90
1468;DHT22;727;48.892;9.544;2022-12-29T05:25:53;9.90;99.90
1468;DHT22;727;48.892;9.544;2022-12-29T05:28:20;10.00;99.90
1468;DHT22;727;48.892;9.544;2022-12-29T05:30:48;10.00;99.90
1468;DHT22;727;48.892;9.544;2022-12-29T05:33:15;10.00;99.90
1468;DHT22;727;48.892;9.544;2022-12-29T05:35:43;10.00;99.90
1468;DHT22;727;48.892;9.544;2022-12-29T05:38:09;10.00;99.90
1468;DHT22;727;48.892;9.544;2022-12-29T05:40:36;10.20;99.90
1468;DHT22;727;48.892;9.544;2022-12-29T05:43:03;10.30;99.90
1468;DHT22;727;48.892;9.544;2022-12-29T05:45:29;10.60;99.90
1468;DHT22;727;48.892;9.544;2022-12-29T05:47:56;10.60;99.90
1468;DHT22;727;48.892;9.544;2022-12-29T05:50:23;10.60;99.90
1468;DHT22;727;48.892;9.544;2022-12-29T05:52:51;10.60;99.90
1468;DHT22;727;48.892;9.544;2022-12-29T05:55:17;10.60;99.90
1468;DHT22;727;48.892;9.544;2022-12-29T05:57:44;10.70;99.90
1468;DHT22;727;48.892;9.544;2022-12-29T06:00:12;10.80;99.90
1468;DHT22;727;48.892;9.544;2022-12-29T06:02:39;10.80;99.90
1468;DHT22;727;48.892;9.544;2022-12-29T06:05:06;10.80;99.90
1468;DHT22;727;48.892;9.544;2022-12-29T06:07:33;10.80;99.90
1468;DHT22;727;48.892;9.544;2022-12-29T06:10:01;10.80;99.90
1468;DHT22;727;48.892;9.544;2022-12-29T06:12:28;10.80;99.90
1468;DHT22;727;48.892;9.544;2022-12-29T06:14:54;10.70;99.90
1468;DHT22;727;48.892;9.544;2022-12-29T06:17:23;10.70;99.90
1468;DHT22;727;48.892;9.544;2022-12-29T06:19:51;10.70;99.90
1468;DHT22;727;48.892;9.544;2022-12-29T06:22:18;10.80;99.90
1468;DHT22;727;48.892;9.544;2022-12-29T06:24:45;10.80;99.90
1468;DHT22;727;48.892;9.544;2022-12-29T06:27:16;10.80;99.90
1468;DHT22;727;48.892;9.544;2022-12-29T06:29:43;10.80;99.90
1468;DHT22;727;48.892;9.544;2022-12-29T06:32:09;10.60;99.90
1468;DHT22;727;48.892;9.544;2022-12-29T06:34:37;10.60;99.90
1468;DHT22;727;48.892;9.544;2022-12-29T06:37:04;10.50;99.90
1468;DHT22;727;48.892;9.544;2022-12-29T06:39:30;10.30;99.90
1468;DHT22;727;48.892;9.544;2022-12-29T06:41:59;10.30;99.90
1468;DHT22;727;48.892;9.544;2022-12-29T06:44:27;10.30;99.90
1468;DHT22;727;48.892;9.544;2022-12-29T06:46:54;10.20;99.90
1468;DHT22;727;48.892;9.544;2022-12-29T06:49:22;10.10;99.90
1468;DHT22;727;48.892;9.544;2022-12-29T06:51:49;10.00;99.90
1468;DHT22;727;48.892;9.544;2022-12-29T06:54:16;9.90;99.90
1468;DHT22;727;48.892;9.544;2022-12-29T06:56:43;9.80;99.90
1468;DHT22;727;48.892;9.544;2022-12-29T06:59:09;9.70;99.90
1468;DHT22;727;48.892;9.544;2022-12-29T07:01:37;10.00;99.90
1468;DHT22;727;48.892;9.544;2022-12-29T07:04:05;10.20;99.90
1468;DHT22;727;48.892;9.544;2022-12-29T07:06:31;10.20;99.90
1468;DHT22;727;48.892;9.544;2022-12-29T07:08:58;10.30;99.90
1468;DHT22;727;48.892;9.544;2022-12-29T07:11:25;10.60;99.80
1468;DHT22;727;48.892;9.544;2022-12-29T07:13:52;10.70;99.60
1468;DHT22;727;48.892;9.544;2022-12-29T07:16:18;10.70;99.60
1468;DHT22;727;48.892;9.544;2022-12-29T07:18:46;10.80;99.40
1468;DHT22;727;48.892;9.544;2022-12-29T07:21:13;10.70;99.30
1468;DHT22;727;48.892;9.544;2022-12-29T07:23:40;10.80;99.30
1468;DHT22;727;48.892;9.544;2022-12-29T07:26:08;10.80;99.30
1468;DHT22;727;48.892;9.544;2022-12-29T07:28:36;10.80;99.10
1468;DHT22;727;48.892;9.544;2022-12-29T07:31:03;10.90;98.90
1468;DHT22;727;48.892;9.544;2022-12-29T07:33:31;11.10;98.30
1468;DHT22;727;48.892;9.544;2022-12-29T07:36:00;11.20;98.20
1468;DHT22;727;48.892;9.544;2022-12-29T07:38:26;11.30;97.80
1468;DHT22;727;48.892;9.544;2022-12-29T07:40:56;11.40;97.50
1468;DHT22;727;48.892;9.544;2022-12-29T07:43:23;11.40;97.50
1468;DHT22;727;48.892;9.544;2022-12-29T07:45:50;11.50;97.20
1468;DHT22;727;48.892;9.544;2022-12-29T07:48:16;11.60;97.00
1468;DHT22;727;48.892;9.544;2022-12-29T07:50:43;11.70;96.70
1468;DHT22;727;48.892;9.544;2022-12-29T07:53:13;11.60;96.70
1468;DHT22;727;48.892;9.544;2022-12-29T07:55:40;11.80;96.40
1468;DHT22;727;48.892;9.544;2022-12-29T07:58:07;11.80;96.50
1468;DHT22;727;48.892;9.544;2022-12-29T08:00:34;11.70;96.50
1468;DHT22;727;48.892;9.544;2022-12-29T08:03:00;11.80;96.30
1468;DHT22;727;48.892;9.544;2022-12-29T08:05:27;11.70;96.10
1468;DHT22;727;48.892;9.544;2022-12-29T08:07:54;11.80;96.20
1468;DHT22;727;48.892;9.544;2022-12-29T08:10:22;11.90;96.10
1468;DHT22;727;48.892;9.544;2022-12-29T08:12:48;11.90;96.00
1468;DHT22;727;48.892;9.544;2022-12-29T08:15:15;11.90;96.20
1468;DHT22;727;48.892;9.544;2022-12-29T08:17:42;11.90;95.80
1468;DHT22;727;48.892;9.544;2022-12-29T08:20:11;11.90;95.80
1468;DHT22;727;48.892;9.544;2022-12-29T08:22:38;11.80;95.80
1468;DHT22;727;48.892;9.544;2022-12-29T08:25:05;11.90;95.90
1468;DHT22;727;48.892;9.544;2022-12-29T08:27:33;12.10;95.70
1468;DHT22;727;48.892;9.544;2022-12-29T08:30:00;12.30;95.50
1468;DHT22;727;48.892;9.544;2022-12-29T08:32:27;12.30;95.20
1468;DHT22;727;48.892;9.544;2022-12-29T08:34:55;12.10;95.20
1468;DHT22;727;48.892;9.544;2022-12-29T08:37:21;11.90;95.40
1468;DHT22;727;48.892;9.544;2022-12-29T08:39:48;11.70;95.80
1468;DHT22;727;48.892;9.544;2022-12-29T08:42:15;11.60;96.30
1468;DHT22;727;48.892;9.544;2022-12-29T08:44:43;11.50;96.50
1468;DHT22;727;48.892;9.544;2022-12-29T08:47:10;11.30;96.70
1468;DHT22;727;48.892;9.544;2022-12-29T08:49:37;11.30;97.00
1468;DHT22;727;48.892;9.544;2022-12-29T08:52:04;11.20;97.10
1468;DHT22;727;48.892;9.544;2022-12-29T08:54:31;11.20;97.30
1468;DHT22;727;48.892;9.544;2022-12-29T08:56:58;11.30;97.50
1468;DHT22;727;48.892;9.544;2022-12-29T08:59:25;11.40;96.90
1468;DHT22;727;48.892;9.544;2022-12-29T09:01:53;11.40;97.10
1468;DHT22;727;48.892;9.544;2022-12-29T09:04:20;11.40;97.10
1468;DHT22;727;48.892;9.544;2022-12-29T09:06:49;11.30;97.20
1468;DHT22;727;48.892;9.544;2022-12-29T09:09:15;11.30;97.30
1468;DHT22;727;48.892;9.544;2022-12-29T09:11:42;11.30;97.20
1468;DHT22;727;48.892;9.544;2022-12-29T09:14:10;11.20;97.30
1468;DHT22;727;48.892;9.544;2022-12-29T09:16:37;11.20;97.40
1468;DHT22;727;48.892;9.544;2022-12-29T09:19:20;11.20;97.20
1468;DHT22;727;48.892;9.544;2022-12-29T09:21:47;11.20;97.40
1468;DHT22;727;48.892;9.544;2022-12-29T09:24:14;11.10;97.70
1468;DHT22;727;48.892;9.544;2022-12-29T09:26:41;11.10;97.70
1468;DHT22;727;48.892;9.544;2022-12-29T09:29:08;11.10;97.70
1468;DHT22;727;48.892;9.544;2022-12-29T09:31:34;11.20;97.50
1468;DHT22;727;48.892;9.544;2022-12-29T09:34:01;11.20;97.50
1468;DHT22;727;48.892;9.544;2022-12-29T09:36:29;11.20;97.40
1468;DHT22;727;48.892;9.544;2022-12-29T09:38:56;11.10;97.50
1468;DHT22;727;48.892;9.544;2022-12-29T09:41:27;11.20;97.60
1468;DHT22;727;48.892;9.544;2022-12-29T09:44:04;11.30;97.60
1468;DHT22;727;48.892;9.544;2022-12-29T09:46:35;11.20;97.80
1468;DHT22;727;48.892;9.544;2022-12-29T09:49:11;11.20;97.90
1468;DHT22;727;48.892;9.544;2022-12-29T09:51:44;11.20;98.00
1468;DHT22;727;48.892;9.544;2022-12-29T09:54:27;11.20;97.70
1468;DHT22;727;48.892;9.544;2022-12-29T09:56:57;11.30;97.50
1468;DHT22;727;48.892;9.544;2022-12-29T09:59:29;11.30;97.50
1468;DHT22;727;48.892;9.544;2022-12-29T10:02:08;11.30;97.40
1468;DHT22;727;48.892;9.544;2022-12-29T10:04:40;11.40;97.70
1468;DHT22;727;48.892;9.544;2022-12-29T10:07:17;11.30;97.90
1468;DHT22;727;48.892;9.544;2022-12-29T10:09:56;11.30;98.00
1468;DHT22;727;48.892;9.544;2022-12-29T10:12:33;11.40;98.00
1468;DHT22;727;48.892;9.544;2022-12-29T10:15:12;11.60;97.50
1468;DHT22;727;48.892;9.544;2022-12-29T10:17:45;12.00;96.90
1468;DHT22;727;48.892;9.544;2022-12-29T10:20:33;12.20;96.40
1468;DHT22;727;48.892;9.544;2022-12-29T10:23:19;12.20;96.20
1468;DHT22;727;48.892;9.544;2022-12-29T10:25:49;12.20;96.10
1468;DHT22;727;48.892;9.544;2022-12-29T10:28:20;12.10;96.20
1468;DHT22;727;48.892;9.544;2022-12-29T10:30:48;12.20;96.10
1468;DHT22;727;48.892;9.544;2022-12-29T10:33:19;12.20;96.00
1468;DHT22;727;48.892;9.544;2022-12-29T10:35:47;12.30;95.90
1468;DHT22;727;48.892;9.544;2022-12-29T10:38:22;12.40;95.80
1468;DHT22;727;48.892;9.544;2022-12-29T10:40:56;12.40;95.70
1468;DHT22;727;48.892;9.544;2022-12-29T10:43:26;12.50;95.70
1468;DHT22;727;48.892;9.544;2022-12-29T10:45:55;12.60;95.70
1468;DHT22;727;48.892;9.544;2022-12-29T10:48:24;12.70;95.40
1468;DHT22;727;48.892;9.544;2022-12-29T10:50:55;12.80;95.10
1468;DHT22;727;48.892;9.544;2022-12-29T10:53:27;12.90;95.10
1468;DHT22;727;48.892;9.544;2022-12-29T10:55:56;12.90;95.40
1468;DHT22;727;48.892;9.544;2022-12-29T10:58:26;12.90;95.60
1468;DHT22;727;48.892;9.544;2022-12-29T11:00:54;13.00;95.30
1468;DHT22;727;48.892;9.544;2022-12-29T11:03:45;13.10;95.20
1468;DHT22;727;48.892;9.544;2022-12-29T11:06:18;13.20;94.90
1468;DHT22;727;48.892;9.544;2022-12-29T11:08:54;13.30;95.00
1468;DHT22;727;48.892;9.544;2022-12-29T11:11:24;13.30;95.00
1468;DHT22;727;48.892;9.544;2022-12-29T11:13:56;13.40;94.70
1468;DHT22;727;48.892;9.544;2022-12-29T11:16:30;13.80;94.20
1468;DHT22;727;48.892;9.544;2022-12-29T11:18:58;14.10;93.70
1468;DHT22;727;48.892;9.544;2022-12-29T11:21:30;14.10;93.60
1468;DHT22;727;48.892;9.544;2022-12-29T11:24:00;14.00;93.50
1468;DHT22;727;48.892;9.544;2022-12-29T11:26:28;13.80;93.70
1468;DHT22;727;48.892;9.544;2022-12-29T11:29:11;13.90;93.80
1468;DHT22;727;48.892;9.544;2022-12-29T11:31:44;14.00;93.40
1468;DHT22;727;48.892;9.544;2022-12-29T11:34:17;13.90;93.50
1468;DHT22;727;48.892;9.544;2022-12-29T11:36:45;13.80;93.70
1468;DHT22;727;48.892;9.544;2022-12-29T11:39:26;13.70;94.10
1468;DHT22;727;48.892;9.544;2022-12-29T11:41:54;13.50;94.20
1468;DHT22;727;48.892;9.544;2022-12-29T11:44:21;13.50;94.40
1468;DHT22;727;48.892;9.544;2022-12-29T11:46:50;13.50;94.50
1468;DHT22;727;48.892;9.544;2022-12-29T11:49:20;13.40;94.50
1468;DHT22;727;48.892;9.544;2022-12-29T11:51:49;13.40;94.60
1468;DHT22;727;48.892;9.544;2022-12-29T11:54:19;13.40;94.50
1468;DHT22;727;48.892;9.544;2022-12-29T11:56:50;13.40;94.70
1468;DHT22;727;48.892;9.544;2022-12-29T11:59:41;13.40;94.40
1468;DHT22;727;48.892;9.544;2022-12-29T12:02:23;13.40;94.40
1468;DHT22;727;48.892;9.544;2022-12-29T12:04:56;13.30;94.60
1468;DHT22;727;48.892;9.544;2022-12-29T12:07:36;13.30;94.90
1468;DHT22;727;48.892;9.544;2022-12-29T12:10:06;13.30;94.80
1468;DHT22;727;48.892;9.544;2022-12-29T12:12:43;13.50;94.90
1468;DHT22;727;48.892;9.544;2022-12-29T12:15:17;13.60;95.10
1468;DHT22;727;48.892;9.544;2022-12-29T12:17:49;13.60;95.80
1468;DHT22;727;48.892;9.544;2022-12-29T12:20:19;13.50;96.40
1468;DHT22;727;48.892;9.544;2022-12-29T12:22:53;13.30;96.40
1468;DHT22;727;48.892;9.544;2022-12-29T12:25:24;13.30;97.10
1468;DHT22;727;48.892;9.544;2022-12-29T12:27:57;13.30;97.40
1468;DHT22;727;48.892;9.544;2022-12-29T12:30:27;13.30;97.80
1468;DHT22;727;48.892;9.544;2022-12-29T12:32:58;13.30;97.90
1468;DHT22;727;48.892;9.544;2022-12-29T12:35:32;13.30;97.60
1468;DHT22;727;48.892;9.544;2022-12-29T12:38:13;13.20;97.80
1468;DHT22;727;48.892;9.544;2022-12-29T12:40:55;13.10;98.20
1468;DHT22;727;48.892;9.544;2022-12-29T12:43:37;13.10;98.40
1468;DHT22;727;48.892;9.544;2022-12-29T12:46:18;13.00;98.80
1468;DHT22;727;48.892;9.544;2022-12-29T12:48:58;12.90;98.80
1468;DHT22;727;48.892;9.544;2022-12-29T12:51:35;12.90;98.80
1468;DHT22;727;48.892;9.544;2022-12-29T12:54:15;12.90;98.80
1468;DHT22;727;48.892;9.544;2022-12-29T12:57:01;13.30;98.90
1468;DHT22;727;48.892;9.544;2022-12-29T12:59:39;13.90;97.70
1468;DHT22;727;48.892;9.544;2022-12-29T13:02:30;14.00;97.40
1468;DHT22;727;48.892;9.544;2022-12-29T13:05:14;13.80;97.00
1468;DHT22;727;48.892;9.544;2022-12-29T13:07:54;13.60;97.20
1468;DHT22;727;48.892;9.544;2022-12-29T13:13:40;13.30;97.20
1468;DHT22;727;48.892;9.544;2022-12-29T13:16:17;13.20;97.20
1468;DHT22;727;48.892;9.544;2022-12-29T13:18:52;13.20;97.40
1468;DHT22;727;48.892;9.544;2022-12-29T13:21:32;13.10;97.60
1468;DHT22;727;48.892;9.544;2022-12-29T13:24:03;13.10;97.80
1468;DHT22;727;48.892;9.544;2022-12-29T13:26:42;13.00;98.30
1468;DHT22;727;48.892;9.544;2022-12-29T13:29:17;13.30;97.90
1468;DHT22;727;48.892;9.544;2022-12-29T13:31:52;13.70;97.40
1468;DHT22;727;48.892;9.544;2022-12-29T13:34:30;13.90;96.90
1468;DHT22;727;48.892;9.544;2022-12-29T13:37:07;14.10;96.80
1468;DHT22;727;48.892;9.544;2022-12-29T13:39:38;14.50;96.00
1468;DHT22;727;48.892;9.544;2022-12-29T13:42:06;14.40;95.90
1468;DHT22;727;48.892;9.544;2022-12-29T13:44:35;14.10;96.40
1468;DHT22;727;48.892;9.544;2022-12-29T13:47:15;13.80;97.00
1468;DHT22;727;48.892;9.544;2022-12-29T13:49:47;13.40;97.40
1468;DHT22;727;48.892;9.544;2022-12-29T13:52:20;13.20;98.00
1468;DHT22;727;48.892;9.544;2022-12-29T13:54:57;13.10;98.30
1468;DHT22;727;48.892;9.544;2022-12-29T13:57:35;13.00;98.60
1468;DHT22;727;48.892;9.544;2022-12-29T14:00:12;12.90;98.80
1468;DHT22;727;48.892;9.544;2022-12-29T14:02:58;12.90;99.00
1468;DHT22;727;48.892;9.544;2022-12-29T14:05:30;12.90;99.00
1468;DHT22;727;48.892;9.544;2022-12-29T14:07:59;12.90;99.00
1468;DHT22;727;48.892;9.544;2022-12-29T14:10:29;12.90;99.00
1468;DHT22;727;48.892;9.544;2022-12-29T14:13:05;12.80;99.10
1468;DHT22;727;48.892;9.544;2022-12-29T14:15:38;12.80;99.20
1468;DHT22;727;48.892;9.544;2022-12-29T14:18:14;12.70;99.30
1468;DHT22;727;48.892;9.544;2022-12-29T14:20:50;12.70;99.30
1468;DHT22;727;48.892;9.544;2022-12-29T14:23:28;12.70;99.40
1468;DHT22;727;48.892;9.544;2022-12-29T14:25:57;12.70;99.50
1468;DHT22;727;48.892;9.544;2022-12-29T14:28:26;12.70;99.40
1468;DHT22;727;48.892;9.544;2022-12-29T14:30:54;12.70;99.50
1468;DHT22;727;48.892;9.544;2022-12-29T14:33:23;12.70;99.50
1468;DHT22;727;48.892;9.544;2022-12-29T14:35:52;12.70;99.70
1468;DHT22;727;48.892;9.544;2022-12-29T14:38:25;12.60;99.90
1468;DHT22;727;48.892;9.544;2022-12-29T14:40:53;12.60;99.90
1468;DHT22;727;48.892;9.544;2022-12-29T14:43:39;12.50;99.90
1468;DHT22;727;48.892;9.544;2022-12-29T14:46:08;12.40;99.90
1468;DHT22;727;48.892;9.544;2022-12-29T14:48:39;12.50;99.90
1468;DHT22;727;48.892;9.544;2022-12-29T14:51:29;12.50;99.90
1468;DHT22;727;48.892;9.544;2022-12-29T14:53:57;12.50;99.90
1468;DHT22;727;48.892;9.544;2022-12-29T14:56:26;12.50;99.90
1468;DHT22;727;48.892;9.544;2022-12-29T14:58:55;12.40;99.90
1468;DHT22;727;48.892;9.544;2022-12-29T15:01:28;12.40;99.90
1468;DHT22;727;48.892;9.544;2022-12-29T15:04:05;12.30;99.90
1468;DHT22;727;48.892;9.544;2022-12-29T15:06:36;12.30;99.90
1468;DHT22;727;48.892;9.544;2022-12-29T15:09:10;12.20;99.90
1468;DHT22;727;48.892;9.544;2022-12-29T15:11:48;12.10;99.90
1468;DHT22;727;48.892;9.544;2022-12-29T15:14:29;12.10;99.90
1468;DHT22;727;48.892;9.544;2022-12-29T15:16:56;12.10;99.90
1468;DHT22;727;48.892;9.544;2022-12-29T15:19:25;12.10;99.90
1468;DHT22;727;48.892;9.544;2022-12-29T15:21:53;12.10;99.90
1468;DHT22;727;48.892;9.544;2022-12-29T15:24:20;12.10;99.90
1468;DHT22;727;48.892;9.544;2022-12-29T15:26:49;12.00;99.90
1468;DHT22;727;48.892;9.544;2022-12-29T15:29:37;12.00;99.90
1468;DHT22;727;48.892;9.544;2022-12-29T15:32:20;11.90;99.90
1468;DHT22;727;48.892;9.544;2022-12-29T15:34:51;11.90;99.90
1468;DHT22;727;48.892;9.544;2022-12-29T15:37:21;11.80;99.90
1468;DHT22;727;48.892;9.544;2022-12-29T15:39:50;11.60;99.90
1468;DHT22;727;48.892;9.544;2022-12-29T15:45:11;11.30;99.90
1468;DHT22;727;48.892;9.544;2022-12-29T15:47:40;11.20;99.90
1468;DHT22;727;48.892;9.544;2022-12-29T15:50:19;11.30;99.90
1468;DHT22;727;48.892;9.544;2022-12-29T15:52:48;11.40;99.90
1468;DHT22;727;48.892;9.544;2022-12-29T15:55:20;11.50;99.90
1468;DHT22;727;48.892;9.544;2022-12-29T15:57:47;11.50;99.90
1468;DHT22;727;48.892;9.544;2022-12-29T16:00:22;11.50;99.90
1468;DHT22;727;48.892;9.544;2022-12-29T16:02:51;11.40;99.90
1468;DHT22;727;48.892;9.544;2022-12-29T16:05:20;11.30;99.90
1468;DHT22;727;48.892;9.544;2022-12-29T16:07:54;11.20;99.90
1468;DHT22;727;48.892;9.544;2022-12-29T16:10:27;11.20;99.90
1468;DHT22;727;48.892;9.544;2022-12-29T16:13:02;11.00;99.90
1468;DHT22;727;48.892;9.544;2022-12-29T16:15:29;10.80;99.90
1468;DHT22;727;48.892;9.544;2022-12-29T16:17:56;10.60;99.90
1468;DHT22;727;48.892;9.544;2022-12-29T16:20:30;10.50;99.90
1468;DHT22;727;48.892;9.544;2022-12-29T16:23:00;10.40;99.90
1468;DHT22;727;48.892;9.544;2022-12-29T16:25:29;10.20;99.90
1468;DHT22;727;48.892;9.544;2022-12-29T16:27:57;10.10;99.90
1468;DHT22;727;48.892;9.544;2022-12-29T16:30:27;10.10;99.90
1468;DHT22;727;48.892;9.544;2022-12-29T16:32:57;10.10;99.90
1468;DHT22;727;48.892;9.544;2022-12-29T16:35:27;10.00;99.90
1468;DHT22;727;48.892;9.544;2022-12-29T16:38:11;9.90;99.90
1468;DHT22;727;48.892;9.544;2022-12-29T16:40:49;9.90;99.90
1468;DHT22;727;48.892;9.544;2022-12-29T16:43:21;9.80;99.90
1468;DHT22;727;48.892;9.544;2022-12-29T16:46:17;9.80;99.90
1468;DHT22;727;48.892;9.544;2022-12-29T16:48:50;9.70;99.90
1468;DHT22;727;48.892;9.544;2022-12-29T16:51:28;9.70;99.90
1468;DHT22;727;48.892;9.544;2022-12-29T16:53:56;9.70;99.90
1468;DHT22;727;48.892;9.544;2022-12-29T16:56:26;9.80;99.90
1468;DHT22;727;48.892;9.544;2022-12-29T16:59:02;9.80;99.90